Lenora, Kansas
Current Conditions -  °F | °C
As of 10:53 PM on Thursday 30 Oct 2014 (Local Time) from KHLC Reporting Station
Clear Clear  
Wind Chill:   Ceiling: Unl
Heat Index:   Visibility: 10mi
Dew Point:   Wind: 15mph
Humidity: 56%   Direction: 30°NNE
Pressure: 30.39"   Gusts: NA
Location:  39.61°N, 100°W
Report Text: KHLC 310353Z AUTO 03013KT 10SM CLR 09/01 A3039 RMK AO2 SLP291 T00890006
Loading
Personal Weather Stations






























Interactive Weather Map
Tropical Storm Tracking
New forecast layout! Learn more

10-Day Weather Forecast

Advertisements
Track Severe Weather on mobile